createdAt,value
2024-01-24T00:04:52.526Z,0.55
2024-01-24T00:09:53.283Z,0.60
2024-01-24T00:14:54.058Z,0.90
2024-01-24T00:19:56.058Z,0.52
2024-01-24T00:24:56.890Z,0.50
2024-01-24T00:29:57.605Z,0.50
2024-01-24T00:34:59.691Z,0.47
2024-01-24T00:40:00.382Z,0.60
2024-01-24T00:45:01.182Z,0.65
2024-01-24T00:50:05.800Z,0.65
2024-01-24T00:55:07.515Z,0.65
2024-01-24T01:00:09.950Z,0.85
2024-01-24T01:05:11.997Z,0.90
2024-01-24T01:10:12.684Z,1.25
2024-01-24T01:15:13.469Z,1.20
2024-01-24T01:20:20.045Z,1.00
2024-01-24T01:25:20.833Z,0.77
2024-01-24T01:30:24.769Z,0.75
2024-01-24T01:35:27.260Z,0.90
2024-01-24T01:40:28.649Z,0.88
2024-01-24T01:45:29.342Z,1.08
2024-01-24T01:50:31.523Z,0.98
2024-01-24T01:55:33.351Z,0.85
2024-01-24T02:00:35.088Z,0.98
2024-01-24T02:05:39.260Z,0.55
2024-01-24T02:10:40.306Z,0.57
2024-01-24T02:15:41.130Z,0.45
2024-01-24T02:20:44.137Z,0.73
2024-01-24T02:25:46.164Z,0.32
2024-01-24T02:30:46.989Z,0.30
2024-01-24T02:35:47.706Z,0.60
2024-01-24T02:40:49.728Z,0.50
2024-01-24T02:45:50.530Z,0.68
2024-01-24T02:50:51.764Z,0.43
2024-01-24T02:55:53.856Z,0.50
2024-01-24T03:00:54.699Z,0.47
2024-01-24T03:05:55.410Z,0.38
2024-01-24T03:10:57.426Z,0.50
2024-01-24T03:15:58.214Z,0.95
2024-01-24T03:20:58.910Z,0.75
2024-01-24T03:26:01.203Z,0.93
2024-01-24T03:31:02.082Z,0.52
2024-01-24T03:36:02.765Z,0.82
2024-01-24T03:41:04.968Z,0.50
2024-01-24T03:46:06.019Z,0.80
2024-01-24T03:51:09.584Z,0.70
2024-01-24T03:56:11.905Z,0.77
2024-01-24T04:01:12.669Z,0.80
2024-01-24T04:06:13.467Z,0.60
2024-01-24T04:11:15.636Z,0.70
2024-01-24T04:16:16.314Z,0.90
2024-01-24T04:21:17.058Z,0.70
2024-01-24T04:26:22.447Z,0.90
2024-01-24T04:31:23.136Z,0.60
2024-01-24T04:36:23.863Z,0.52
2024-01-24T04:41:25.913Z,0.70
2024-01-24T04:46:26.693Z,0.68
2024-01-24T04:51:29.490Z,0.60
2024-01-24T04:56:31.660Z,0.60
2024-01-24T05:01:32.541Z,0.40
2024-01-24T05:06:33.470Z,0.70
2024-01-24T05:11:35.535Z,0.52
2024-01-24T05:16:36.252Z,0.60
2024-01-24T05:21:41.454Z,1.70
2024-01-24T05:26:44.845Z,0.73
2024-01-24T05:31:45.596Z,0.50
2024-01-24T05:36:46.336Z,0.40
2024-01-24T05:41:48.523Z,0.60
2024-01-24T05:46:49.725Z,0.63
2024-01-24T05:51:50.513Z,0.60
2024-01-24T05:56:52.692Z,0.80
2024-01-24T06:01:53.438Z,0.60
2024-01-24T06:06:56.207Z,0.43
2024-01-24T06:11:58.346Z,0.80
2024-01-24T06:16:59.158Z,0.50
2024-01-24T06:21:59.982Z,0.75
2024-01-24T06:27:01.987Z,0.45
2024-01-24T06:32:02.839Z,0.35
2024-01-24T06:37:03.579Z,0.40
2024-01-24T06:42:05.889Z,0.75
2024-01-24T06:47:06.751Z,0.30
2024-01-24T06:52:08.475Z,0.50
2024-01-24T06:57:10.541Z,0.50
2024-01-24T07:02:11.272Z,0.47
2024-01-24T07:07:12.063Z,0.40
2024-01-24T07:12:15.110Z,0.55
2024-01-24T07:17:16.035Z,0.45
2024-01-24T07:22:18.003Z,0.95
2024-01-24T07:27:20.142Z,0.50
2024-01-24T07:32:20.875Z,0.40
2024-01-24T07:37:21.579Z,0.60
2024-01-24T07:42:23.962Z,0.60
2024-01-24T07:47:24.703Z,0.38
2024-01-24T07:52:36.341Z,0.35
2024-01-24T07:57:43.317Z,0.43
2024-01-24T08:02:44.857Z,0.38
2024-01-24T08:07:45.746Z,0.22
2024-01-24T08:12:47.945Z,0.28
2024-01-24T08:17:48.958Z,0.50
2024-01-24T08:22:52.598Z,0.30
2024-01-24T08:27:54.882Z,0.40
2024-01-24T08:32:55.779Z,0.20
2024-01-24T08:37:56.710Z,0.52
2024-01-24T08:42:58.866Z,0.38
2024-01-24T08:48:00.287Z,0.43
2024-01-24T08:53:01.316Z,0.38
2024-01-24T08:58:04.107Z,0.52
2024-01-24T09:03:05.474Z,0.40
2024-01-24T09:08:07.111Z,0.32
2024-01-24T09:13:16.005Z,0.57
2024-01-24T09:18:19.146Z,0.30
2024-01-24T09:23:20.927Z,0.30
2024-01-24T09:28:24.225Z,0.20
2024-01-24T09:33:25.892Z,0.30
2024-01-24T09:38:26.754Z,0.50
2024-01-24T09:43:40.972Z,0.20
2024-01-24T09:48:43.681Z,0.85
2024-01-24T09:53:47.955Z,0.40
2024-01-24T09:58:50.181Z,0.50
2024-01-24T10:03:53.178Z,0.75
2024-01-24T10:08:53.884Z,0.40
2024-01-24T10:13:59.040Z,0.50
2024-01-24T10:18:59.902Z,0.40
2024-01-24T10:24:01.160Z,0.65
2024-01-24T10:29:03.995Z,0.43
2024-01-24T10:34:05.794Z,0.70
2024-01-24T10:39:11.653Z,0.75
2024-01-24T10:44:21.126Z,0.93
2024-01-24T10:49:24.055Z,0.63
2024-01-24T10:54:25.892Z,1.45
2024-01-24T10:59:30.866Z,1.75
2024-01-24T11:04:32.056Z,1.42
2024-01-24T11:09:39.358Z,2.33
2024-01-24T11:14:47.274Z,1.70
2024-01-24T11:19:48.374Z,1.90
2024-01-24T11:24:51.339Z,1.88
2024-01-24T11:29:54.596Z,1.65
2024-01-24T11:35:27.041Z,2.83
2024-01-24T11:40:28.091Z,2.00
2024-01-24T11:45:31.785Z,1.60
2024-01-24T11:50:32.549Z,2.42
2024-01-24T11:55:33.310Z,1.73
2024-01-24T12:00:35.755Z,1.92
2024-01-24T12:05:36.783Z,1.77
2024-01-24T12:10:40.073Z,1.52
2024-01-24T12:15:44.065Z,1.42
2024-01-24T12:20:47.785Z,2.03
2024-01-24T12:25:49.185Z,1.90
2024-01-24T12:30:55.593Z,2.80
2024-01-24T12:35:57.082Z,1.60
2024-01-24T12:40:58.085Z,2.15
2024-01-24T12:46:06.620Z,1.55
2024-01-24T12:51:07.911Z,1.83
2024-01-24T12:56:11.107Z,3.15
2024-01-24T13:01:13.706Z,1.95
2024-01-24T13:06:16.414Z,2.72
2024-01-24T13:11:17.591Z,2.85
2024-01-24T13:16:20.006Z,2.25
2024-01-24T13:21:20.819Z,2.83
2024-01-24T13:26:21.569Z,1.80
2024-01-24T13:31:23.837Z,3.13
2024-01-24T13:36:24.632Z,2.53
2024-01-24T13:41:25.742Z,2.58
2024-01-24T13:46:27.873Z,2.33
2024-01-24T13:51:38.734Z,2.58
2024-01-24T13:56:48.773Z,2.00
2024-01-24T14:01:56.739Z,2.05
2024-01-24T14:07:19.359Z,2.55
2024-01-24T14:12:20.397Z,2.80
2024-01-24T14:17:23.736Z,1.98
2024-01-24T14:22:24.596Z,2.33
2024-01-24T14:27:27.467Z,2.95
2024-01-24T14:32:29.778Z,3.00
2024-01-24T14:37:31.946Z,3.28
2024-01-24T14:42:33.586Z,3.47
2024-01-24T14:47:35.788Z,2.75
2024-01-24T14:52:37.116Z,2.90
2024-01-24T14:57:38.007Z,2.60
2024-01-24T15:02:40.692Z,3.00
2024-01-24T15:07:42.121Z,2.97
2024-01-24T15:12:43.031Z,2.75
2024-01-24T15:17:45.224Z,2.90
2024-01-24T15:22:46.143Z,3.53
2024-01-24T15:27:47.497Z,2.85
2024-01-24T15:32:50.296Z,4.13
2024-01-24T15:37:54.152Z,2.83
2024-01-24T15:43:00.862Z,2.72
2024-01-24T15:48:03.202Z,3.10
2024-01-24T15:53:04.104Z,2.75
2024-01-24T15:58:05.431Z,3.47
2024-01-24T16:03:12.028Z,3.35
2024-01-24T16:08:13.442Z,3.95
2024-01-24T16:13:14.462Z,3.55
2024-01-24T16:18:16.620Z,3.60
2024-01-24T16:23:17.426Z,3.30
2024-01-24T16:28:18.317Z,4.57
2024-01-24T16:33:20.498Z,2.53
2024-01-24T16:38:21.896Z,3.00
2024-01-24T16:43:31.941Z,3.05
2024-01-24T16:48:34.751Z,3.40
2024-01-24T16:53:38.063Z,3.22
2024-01-24T16:58:40.884Z,3.95
2024-01-24T17:03:43.423Z,3.38
2024-01-24T17:08:44.395Z,4.25
2024-01-24T17:13:45.103Z,3.53
2024-01-24T17:18:47.288Z,2.58
2024-01-24T17:23:48.116Z,3.75
2024-01-24T17:28:49.071Z,3.35
2024-01-24T17:33:51.481Z,2.90
2024-01-24T17:38:52.464Z,3.00
2024-01-24T17:43:53.222Z,2.75
2024-01-24T17:48:55.524Z,3.05
2024-01-24T17:53:56.358Z,2.83
2024-01-24T17:58:57.284Z,2.88
2024-01-24T18:03:59.580Z,3.67
2024-01-24T18:09:00.802Z,3.97
2024-01-24T18:14:01.990Z,3.20
2024-01-24T18:19:04.207Z,3.40
2024-01-24T18:24:05.974Z,2.75
2024-01-24T18:29:06.929Z,3.35
2024-01-24T18:34:09.492Z,3.28
2024-01-24T18:39:10.369Z,3.25
2024-01-24T18:44:11.083Z,4.28
2024-01-24T18:49:13.625Z,1.95
2024-01-24T18:54:15.146Z,3.58
2024-01-24T18:59:16.107Z,3.15
2024-01-24T19:04:19.026Z,2.97
2024-01-24T19:09:20.004Z,2.83
2024-01-24T19:14:20.946Z,3.13
2024-01-24T19:19:25.450Z,3.08
2024-01-24T19:24:26.395Z,2.80
2024-01-24T19:29:27.231Z,2.72
2024-01-24T19:34:29.509Z,3.30
2024-01-24T19:39:30.813Z,2.95
2024-01-24T19:44:31.566Z,2.92
2024-01-24T19:49:34.287Z,2.42
2024-01-24T19:54:36.978Z,2.67
2024-01-24T19:59:37.863Z,2.92
2024-01-24T20:04:40.359Z,2.60
2024-01-24T20:09:42.210Z,2.83
2024-01-24T20:14:42.972Z,2.75
2024-01-24T20:19:46.244Z,2.88
2024-01-24T20:24:47.642Z,3.78
2024-01-24T20:29:49.563Z,4.82
2024-01-24T20:34:51.860Z,3.13
2024-01-24T20:39:53.557Z,3.42
2024-01-24T20:44:54.890Z,3.20
2024-01-24T20:49:57.171Z,3.38
2024-01-24T20:54:58.088Z,3.83
2024-01-24T20:59:58.902Z,2.50
2024-01-24T21:05:01.368Z,2.75
2024-01-24T21:10:02.262Z,3.15
2024-01-24T21:15:03.293Z,3.28
2024-01-24T21:20:06.627Z,3.08
2024-01-24T21:25:09.266Z,2.90
2024-01-24T21:30:11.445Z,3.33
2024-01-24T21:35:13.508Z,2.45
2024-01-24T21:40:14.876Z,2.38
2024-01-24T21:45:16.027Z,2.60
2024-01-24T21:50:18.091Z,3.08
2024-01-24T21:55:18.976Z,2.72
2024-01-24T22:00:20.287Z,2.65
2024-01-24T22:05:22.928Z,3.60
2024-01-24T22:10:23.793Z,2.47
2024-01-24T22:15:24.574Z,3.63
2024-01-24T22:20:26.781Z,3.35
2024-01-24T22:25:28.231Z,2.83
2024-01-24T22:30:29.168Z,2.33
2024-01-24T22:35:31.313Z,2.95
2024-01-24T22:40:33.570Z,2.67
2024-01-24T22:45:34.384Z,3.25
2024-01-24T22:50:36.601Z,2.92
2024-01-24T22:55:37.431Z,2.88
2024-01-24T23:00:38.676Z,3.28
2024-01-24T23:05:40.889Z,2.85
2024-01-24T23:10:41.630Z,4.40
2024-01-24T23:15:43.353Z,3.13
2024-01-24T23:20:45.951Z,3.53
2024-01-24T23:25:49.860Z,4.25
2024-01-24T23:30:52.137Z,2.47
2024-01-24T23:35:54.326Z,3.15
2024-01-24T23:40:54.985Z,2.63
2024-01-24T23:45:55.704Z,2.60
2024-01-24T23:50:58.035Z,4.07
2024-01-24T23:55:58.910Z,2.75
